sensor_id;sensor_type;location;lat;lon;timestamp;temperature;humidity
26164;DHT22;13914;48.178;11.716;2023-07-30T00:00:48;19.60;11.30
26164;DHT22;13914;48.178;11.716;2023-07-30T00:03:15;19.60;11.40
26164;DHT22;13914;48.178;11.716;2023-07-30T00:05:41;19.60;11.30
26164;DHT22;13914;48.178;11.716;2023-07-30T00:08:06;19.60;11.40
26164;DHT22;13914;48.178;11.716;2023-07-30T00:10:32;19.50;11.30
26164;DHT22;13914;48.178;11.716;2023-07-30T00:12:58;19.60;11.50
26164;DHT22;13914;48.178;11.716;2023-07-30T00:15:23;19.50;11.50
26164;DHT22;13914;48.178;11.716;2023-07-30T00:17:49;19.60;11.50
26164;DHT22;13914;48.178;11.716;2023-07-30T00:20:15;19.50;11.60
26164;DHT22;13914;48.178;11.716;2023-07-30T00:22:40;19.50;11.60
26164;DHT22;13914;48.178;11.716;2023-07-30T00:25:06;19.50;11.60
26164;DHT22;13914;48.178;11.716;2023-07-30T00:27:33;19.50;11.50
26164;DHT22;13914;48.178;11.716;2023-07-30T00:29:59;19.50;11.60
26164;DHT22;13914;48.178;11.716;2023-07-30T00:32:25;19.50;11.50
26164;DHT22;13914;48.178;11.716;2023-07-30T00:34:50;19.40;11.60
26164;DHT22;13914;48.178;11.716;2023-07-30T00:37:16;19.40;11.60
26164;DHT22;13914;48.178;11.716;2023-07-30T00:39:41;19.40;11.60
26164;DHT22;13914;48.178;11.716;2023-07-30T00:42:09;19.40;11.60
26164;DHT22;13914;48.178;11.716;2023-07-30T00:44:35;19.40;11.60
26164;DHT22;13914;48.178;11.716;2023-07-30T00:47:00;19.40;11.70
26164;DHT22;13914;48.178;11.716;2023-07-30T00:49:26;19.40;11.70
26164;DHT22;13914;48.178;11.716;2023-07-30T00:51:52;19.40;11.80
26164;DHT22;13914;48.178;11.716;2023-07-30T00:54:17;19.40;11.60
26164;DHT22;13914;48.178;11.716;2023-07-30T00:56:45;19.30;11.70
26164;DHT22;13914;48.178;11.716;2023-07-30T00:59:16;19.40;11.60
26164;DHT22;13914;48.178;11.716;2023-07-30T01:01:42;19.30;11.70
26164;DHT22;13914;48.178;11.716;2023-07-30T01:04:08;19.20;11.70
26164;DHT22;13914;48.178;11.716;2023-07-30T01:06:34;19.30;11.70
26164;DHT22;13914;48.178;11.716;2023-07-30T01:09:00;19.30;11.80
26164;DHT22;13914;48.178;11.716;2023-07-30T01:11:26;19.20;11.70
26164;DHT22;13914;48.178;11.716;2023-07-30T01:13:52;19.20;11.70
26164;DHT22;13914;48.178;11.716;2023-07-30T01:16:18;19.20;11.60
26164;DHT22;13914;48.178;11.716;2023-07-30T01:18:44;19.20;11.80
26164;DHT22;13914;48.178;11.716;2023-07-30T01:21:10;19.20;11.80
26164;DHT22;13914;48.178;11.716;2023-07-30T01:23:36;19.20;11.70
26164;DHT22;13914;48.178;11.716;2023-07-30T01:26:03;19.20;11.70
26164;DHT22;13914;48.178;11.716;2023-07-30T01:28:37;19.20;11.80
26164;DHT22;13914;48.178;11.716;2023-07-30T01:31:05;19.20;11.70
26164;DHT22;13914;48.178;11.716;2023-07-30T01:33:31;19.20;11.90
26164;DHT22;13914;48.178;11.716;2023-07-30T01:35:57;19.10;11.80
26164;DHT22;13914;48.178;11.716;2023-07-30T01:38:23;19.10;11.70
26164;DHT22;13914;48.178;11.716;2023-07-30T01:40:51;19.10;11.70
26164;DHT22;13914;48.178;11.716;2023-07-30T01:43:16;19.10;11.80
26164;DHT22;13914;48.178;11.716;2023-07-30T01:45:42;19.10;11.90
26164;DHT22;13914;48.178;11.716;2023-07-30T01:48:08;19.10;11.80
26164;DHT22;13914;48.178;11.716;2023-07-30T01:50:33;19.00;11.60
26164;DHT22;13914;48.178;11.716;2023-07-30T01:52:59;19.00;11.70
26164;DHT22;13914;48.178;11.716;2023-07-30T01:55:25;19.00;11.70
26164;DHT22;13914;48.178;11.716;2023-07-30T01:57:50;19.00;11.80
26164;DHT22;13914;48.178;11.716;2023-07-30T02:00:16;19.00;11.80
26164;DHT22;13914;48.178;11.716;2023-07-30T02:02:42;18.90;11.90
26164;DHT22;13914;48.178;11.716;2023-07-30T02:05:07;19.00;11.70
26164;DHT22;13914;48.178;11.716;2023-07-30T02:07:33;19.00;12.00
26164;DHT22;13914;48.178;11.716;2023-07-30T02:09:59;18.90;11.90
26164;DHT22;13914;48.178;11.716;2023-07-30T02:12:25;18.90;12.10
26164;DHT22;13914;48.178;11.716;2023-07-30T02:14:51;18.90;11.80
26164;DHT22;13914;48.178;11.716;2023-07-30T02:17:16;18.90;12.00
26164;DHT22;13914;48.178;11.716;2023-07-30T02:19:42;18.90;11.90
26164;DHT22;13914;48.178;11.716;2023-07-30T02:22:08;18.90;11.90
26164;DHT22;13914;48.178;11.716;2023-07-30T02:24:33;18.90;12.00
26164;DHT22;13914;48.178;11.716;2023-07-30T02:26:59;18.90;11.90
26164;DHT22;13914;48.178;11.716;2023-07-30T02:29:25;18.80;12.00
26164;DHT22;13914;48.178;11.716;2023-07-30T02:31:50;18.80;12.10
26164;DHT22;13914;48.178;11.716;2023-07-30T02:34:16;18.80;12.00
26164;DHT22;13914;48.178;11.716;2023-07-30T02:36:42;18.70;12.10
26164;DHT22;13914;48.178;11.716;2023-07-30T02:39:07;18.80;12.30
26164;DHT22;13914;48.178;11.716;2023-07-30T02:41:33;18.80;12.30
26164;DHT22;13914;48.178;11.716;2023-07-30T02:43:59;18.70;12.10
26164;DHT22;13914;48.178;11.716;2023-07-30T02:46:24;18.80;12.30
26164;DHT22;13914;48.178;11.716;2023-07-30T02:48:50;18.80;12.20
26164;DHT22;13914;48.178;11.716;2023-07-30T02:51:15;18.80;12.30
26164;DHT22;13914;48.178;11.716;2023-07-30T02:53:42;18.70;12.10
26164;DHT22;13914;48.178;11.716;2023-07-30T02:56:09;18.70;12.30
26164;DHT22;13914;48.178;11.716;2023-07-30T02:58:35;18.70;12.50
26164;DHT22;13914;48.178;11.716;2023-07-30T03:01:07;18.70;12.30
26164;DHT22;13914;48.178;11.716;2023-07-30T03:03:33;18.70;12.60
26164;DHT22;13914;48.178;11.716;2023-07-30T03:05:59;18.70;13.20
26164;DHT22;13914;48.178;11.716;2023-07-30T03:08:25;18.60;13.60
26164;DHT22;13914;48.178;11.716;2023-07-30T03:10:50;18.70;13.60
26164;DHT22;13914;48.178;11.716;2023-07-30T03:13:16;18.70;13.80
26164;DHT22;13914;48.178;11.716;2023-07-30T03:15:42;18.60;15.20
26164;DHT22;13914;48.178;11.716;2023-07-30T03:18:07;18.60;14.40
26164;DHT22;13914;48.178;11.716;2023-07-30T03:20:33;18.60;14.50
26164;DHT22;13914;48.178;11.716;2023-07-30T03:22:59;18.60;14.30
26164;DHT22;13914;48.178;11.716;2023-07-30T03:25:24;18.60;14.20
26164;DHT22;13914;48.178;11.716;2023-07-30T03:27:50;18.50;14.00
26164;DHT22;13914;48.178;11.716;2023-07-30T03:30:16;18.60;14.60
26164;DHT22;13914;48.178;11.716;2023-07-30T03:32:42;18.60;14.40
26164;DHT22;13914;48.178;11.716;2023-07-30T03:35:07;18.60;14.10
26164;DHT22;13914;48.178;11.716;2023-07-30T03:37:33;18.50;14.20
26164;DHT22;13914;48.178;11.716;2023-07-30T03:39:59;18.50;14.30
26164;DHT22;13914;48.178;11.716;2023-07-30T03:42:24;18.50;14.00
26164;DHT22;13914;48.178;11.716;2023-07-30T03:44:50;18.50;13.70
26164;DHT22;13914;48.178;11.716;2023-07-30T03:47:16;18.50;13.50
26164;DHT22;13914;48.178;11.716;2023-07-30T03:49:41;18.50;13.60
26164;DHT22;13914;48.178;11.716;2023-07-30T03:52:07;18.50;13.50
26164;DHT22;13914;48.178;11.716;2023-07-30T03:54:33;18.50;13.30
26164;DHT22;13914;48.178;11.716;2023-07-30T03:56:58;18.50;13.30
26164;DHT22;13914;48.178;11.716;2023-07-30T03:59:24;18.50;13.20
26164;DHT22;13914;48.178;11.716;2023-07-30T04:01:50;18.50;13.20
26164;DHT22;13914;48.178;11.716;2023-07-30T04:04:15;18.50;13.10
26164;DHT22;13914;48.178;11.716;2023-07-30T04:06:41;18.50;13.00
26164;DHT22;13914;48.178;11.716;2023-07-30T04:09:07;18.40;12.90
26164;DHT22;13914;48.178;11.716;2023-07-30T04:11:33;18.50;13.10
26164;DHT22;13914;48.178;11.716;2023-07-30T04:13:59;18.40;13.20
26164;DHT22;13914;48.178;11.716;2023-07-30T04:16:24;18.40;13.20
26164;DHT22;13914;48.178;11.716;2023-07-30T04:18:50;18.40;13.10
26164;DHT22;13914;48.178;11.716;2023-07-30T04:21:15;18.40;13.00
26164;DHT22;13914;48.178;11.716;2023-07-30T04:23:41;18.40;12.90
26164;DHT22;13914;48.178;11.716;2023-07-30T04:26:07;18.40;13.00
26164;DHT22;13914;48.178;11.716;2023-07-30T04:28:33;18.40;12.90
26164;DHT22;13914;48.178;11.716;2023-07-30T04:30:58;18.40;12.90
26164;DHT22;13914;48.178;11.716;2023-07-30T04:33:24;18.30;12.90
26164;DHT22;13914;48.178;11.716;2023-07-30T04:35:51;18.40;12.90
26164;DHT22;13914;48.178;11.716;2023-07-30T04:38:17;18.40;12.90
26164;DHT22;13914;48.178;11.716;2023-07-30T04:40:43;18.40;13.10
26164;DHT22;13914;48.178;11.716;2023-07-30T04:43:08;18.40;12.80
26164;DHT22;13914;48.178;11.716;2023-07-30T04:45:34;18.40;12.80
26164;DHT22;13914;48.178;11.716;2023-07-30T04:48:00;18.40;12.80
26164;DHT22;13914;48.178;11.716;2023-07-30T04:50:25;18.30;12.70
26164;DHT22;13914;48.178;11.716;2023-07-30T04:52:51;18.30;12.60
26164;DHT22;13914;48.178;11.716;2023-07-30T04:55:17;18.30;12.70
26164;DHT22;13914;48.178;11.716;2023-07-30T04:57:42;18.30;13.20
26164;DHT22;13914;48.178;11.716;2023-07-30T05:00:08;18.30;12.70
26164;DHT22;13914;48.178;11.716;2023-07-30T05:02:34;18.30;12.70
26164;DHT22;13914;48.178;11.716;2023-07-30T05:05:00;18.30;12.80
26164;DHT22;13914;48.178;11.716;2023-07-30T05:07:26;18.30;12.80
26164;DHT22;13914;48.178;11.716;2023-07-30T05:09:51;18.30;12.70
26164;DHT22;13914;48.178;11.716;2023-07-30T05:12:17;18.30;12.90
26164;DHT22;13914;48.178;11.716;2023-07-30T05:14:42;18.30;12.90
26164;DHT22;13914;48.178;11.716;2023-07-30T05:17:08;18.30;13.20
26164;DHT22;13914;48.178;11.716;2023-07-30T05:19:34;18.30;12.90
26164;DHT22;13914;48.178;11.716;2023-07-30T05:21:59;18.30;13.00
26164;DHT22;13914;48.178;11.716;2023-07-30T05:24:27;18.30;12.90
26164;DHT22;13914;48.178;11.716;2023-07-30T05:26:53;18.30;13.50
26164;DHT22;13914;48.178;11.716;2023-07-30T05:29:18;18.30;13.10
26164;DHT22;13914;48.178;11.716;2023-07-30T05:31:44;18.30;12.90
26164;DHT22;13914;48.178;11.716;2023-07-30T05:34:09;18.30;13.00
26164;DHT22;13914;48.178;11.716;2023-07-30T05:36:35;18.30;12.70
26164;DHT22;13914;48.178;11.716;2023-07-30T05:39:01;18.30;12.80
26164;DHT22;13914;48.178;11.716;2023-07-30T05:41:26;18.30;12.70
26164;DHT22;13914;48.178;11.716;2023-07-30T05:43:52;18.30;12.70
26164;DHT22;13914;48.178;11.716;2023-07-30T05:46:18;18.40;12.80
26164;DHT22;13914;48.178;11.716;2023-07-30T05:48:43;18.30;12.70
26164;DHT22;13914;48.178;11.716;2023-07-30T05:51:09;18.40;12.80
26164;DHT22;13914;48.178;11.716;2023-07-30T05:53:35;18.40;12.80
26164;DHT22;13914;48.178;11.716;2023-07-30T05:56:00;18.40;12.80
26164;DHT22;13914;48.178;11.716;2023-07-30T05:58:26;18.40;12.80
26164;DHT22;13914;48.178;11.716;2023-07-30T06:00:52;18.40;12.80
26164;DHT22;13914;48.178;11.716;2023-07-30T06:03:17;18.50;12.80
26164;DHT22;13914;48.178;11.716;2023-07-30T06:05:43;18.40;12.80
26164;DHT22;13914;48.178;11.716;2023-07-30T06:08:09;18.50;12.80
26164;DHT22;13914;48.178;11.716;2023-07-30T06:10:38;18.50;12.90
26164;DHT22;13914;48.178;11.716;2023-07-30T06:13:05;18.50;12.90
26164;DHT22;13914;48.178;11.716;2023-07-30T06:15:31;18.50;12.80
26164;DHT22;13914;48.178;11.716;2023-07-30T06:17:57;18.60;13.70
26164;DHT22;13914;48.178;11.716;2023-07-30T06:20:23;18.60;12.90
26164;DHT22;13914;48.178;11.716;2023-07-30T06:22:49;18.60;13.10
26164;DHT22;13914;48.178;11.716;2023-07-30T06:25:14;18.60;13.20
26164;DHT22;13914;48.178;11.716;2023-07-30T06:27:40;18.60;13.50
26164;DHT22;13914;48.178;11.716;2023-07-30T06:30:06;18.60;13.30
26164;DHT22;13914;48.178;11.716;2023-07-30T06:32:32;18.70;13.20
26164;DHT22;13914;48.178;11.716;2023-07-30T06:34:57;18.70;13.70
26164;DHT22;13914;48.178;11.716;2023-07-30T06:37:23;18.70;13.40
26164;DHT22;13914;48.178;11.716;2023-07-30T06:39:49;18.70;13.30
26164;DHT22;13914;48.178;11.716;2023-07-30T06:42:15;18.80;13.40
26164;DHT22;13914;48.178;11.716;2023-07-30T06:44:40;18.80;13.80
26164;DHT22;13914;48.178;11.716;2023-07-30T06:47:06;18.90;13.90
26164;DHT22;13914;48.178;11.716;2023-07-30T06:49:31;18.90;13.70
26164;DHT22;13914;48.178;11.716;2023-07-30T06:51:59;19.00;13.90
26164;DHT22;13914;48.178;11.716;2023-07-30T06:54:25;18.90;13.80
26164;DHT22;13914;48.178;11.716;2023-07-30T06:56:51;19.10;14.20
26164;DHT22;13914;48.178;11.716;2023-07-30T06:59:16;19.10;14.90
26164;DHT22;13914;48.178;11.716;2023-07-30T07:01:42;19.20;15.40
26164;DHT22;13914;48.178;11.716;2023-07-30T07:04:08;19.30;15.80
26164;DHT22;13914;48.178;11.716;2023-07-30T07:06:34;19.40;17.00
26164;DHT22;13914;48.178;11.716;2023-07-30T07:09:00;19.60;16.60
26164;DHT22;13914;48.178;11.716;2023-07-30T07:11:26;19.70;16.40
26164;DHT22;13914;48.178;11.716;2023-07-30T07:13:51;19.80;16.30
26164;DHT22;13914;48.178;11.716;2023-07-30T07:16:17;20.00;16.70
26164;DHT22;13914;48.178;11.716;2023-07-30T07:18:44;20.10;16.50
26164;DHT22;13914;48.178;11.716;2023-07-30T07:21:10;20.30;16.20
26164;DHT22;13914;48.178;11.716;2023-07-30T07:23:35;20.40;16.10
26164;DHT22;13914;48.178;11.716;2023-07-30T07:26:01;20.60;15.60
26164;DHT22;13914;48.178;11.716;2023-07-30T07:28:27;20.70;15.30
26164;DHT22;13914;48.178;11.716;2023-07-30T07:30:52;20.80;15.40
26164;DHT22;13914;48.178;11.716;2023-07-30T07:33:20;20.90;15.20
26164;DHT22;13914;48.178;11.716;2023-07-30T07:35:45;21.00;15.20
26164;DHT22;13914;48.178;11.716;2023-07-30T07:38:11;21.20;15.00
26164;DHT22;13914;48.178;11.716;2023-07-30T07:40:37;21.20;14.80
26164;DHT22;13914;48.178;11.716;2023-07-30T07:43:05;21.40;14.70
26164;DHT22;13914;48.178;11.716;2023-07-30T07:45:31;21.50;14.70
26164;DHT22;13914;48.178;11.716;2023-07-30T07:47:57;21.60;14.70
26164;DHT22;13914;48.178;11.716;2023-07-30T07:50:22;21.70;14.70
26164;DHT22;13914;48.178;11.716;2023-07-30T07:52:48;21.80;14.60
26164;DHT22;13914;48.178;11.716;2023-07-30T07:55:14;21.90;14.50
26164;DHT22;13914;48.178;11.716;2023-07-30T07:57:40;22.00;14.30
26164;DHT22;13914;48.178;11.716;2023-07-30T08:00:06;22.10;14.20
26164;DHT22;13914;48.178;11.716;2023-07-30T08:02:32;22.20;14.10
26164;DHT22;13914;48.178;11.716;2023-07-30T08:04:58;22.30;14.10
26164;DHT22;13914;48.178;11.716;2023-07-30T08:07:23;22.30;13.90
26164;DHT22;13914;48.178;11.716;2023-07-30T08:09:49;22.40;13.60
26164;DHT22;13914;48.178;11.716;2023-07-30T08:12:17;22.50;13.70
26164;DHT22;13914;48.178;11.716;2023-07-30T08:14:44;22.60;13.50
26164;DHT22;13914;48.178;11.716;2023-07-30T08:17:09;22.60;13.40
26164;DHT22;13914;48.178;11.716;2023-07-30T08:19:35;22.70;13.20
26164;DHT22;13914;48.178;11.716;2023-07-30T08:22:01;22.80;13.20
26164;DHT22;13914;48.178;11.716;2023-07-30T08:24:26;22.80;12.90
26164;DHT22;13914;48.178;11.716;2023-07-30T08:26:52;22.90;12.80
26164;DHT22;13914;48.178;11.716;2023-07-30T08:29:18;22.90;12.80
26164;DHT22;13914;48.178;11.716;2023-07-30T08:31:43;23.00;12.70
26164;DHT22;13914;48.178;11.716;2023-07-30T08:34:09;23.00;12.50
26164;DHT22;13914;48.178;11.716;2023-07-30T08:36:35;23.10;12.50
26164;DHT22;13914;48.178;11.716;2023-07-30T08:39:01;23.10;12.50
26164;DHT22;13914;48.178;11.716;2023-07-30T08:41:27;23.20;12.40
26164;DHT22;13914;48.178;11.716;2023-07-30T08:43:53;23.20;12.20
26164;DHT22;13914;48.178;11.716;2023-07-30T08:46:18;23.30;12.20
26164;DHT22;13914;48.178;11.716;2023-07-30T08:48:44;23.40;12.30
26164;DHT22;13914;48.178;11.716;2023-07-30T08:51:10;23.40;12.20
26164;DHT22;13914;48.178;11.716;2023-07-30T08:53:37;23.40;12.00
26164;DHT22;13914;48.178;11.716;2023-07-30T08:56:02;23.50;11.70
26164;DHT22;13914;48.178;11.716;2023-07-30T08:58:31;23.50;11.90
26164;DHT22;13914;48.178;11.716;2023-07-30T09:00:58;23.60;11.70
26164;DHT22;13914;48.178;11.716;2023-07-30T09:03:24;23.70;11.60
26164;DHT22;13914;48.178;11.716;2023-07-30T09:05:52;23.70;11.50
26164;DHT22;13914;48.178;11.716;2023-07-30T09:08:18;23.80;10.80
26164;DHT22;13914;48.178;11.716;2023-07-30T09:10:43;23.80;11.10
26164;DHT22;13914;48.178;11.716;2023-07-30T09:13:09;23.90;10.80
26164;DHT22;13914;48.178;11.716;2023-07-30T09:15:35;23.90;11.10
26164;DHT22;13914;48.178;11.716;2023-07-30T09:18:05;24.00;10.80
26164;DHT22;13914;48.178;11.716;2023-07-30T09:20:38;24.10;10.70
26164;DHT22;13914;48.178;11.716;2023-07-30T09:23:04;24.20;10.80
26164;DHT22;13914;48.178;11.716;2023-07-30T09:25:31;24.30;10.50
26164;DHT22;13914;48.178;11.716;2023-07-30T09:27:57;24.40;10.20
26164;DHT22;13914;48.178;11.716;2023-07-30T09:30:24;24.50;9.50
26164;DHT22;13914;48.178;11.716;2023-07-30T09:32:51;24.50;9.30
26164;DHT22;13914;48.178;11.716;2023-07-30T09:35:18;24.60;9.10
26164;DHT22;13914;48.178;11.716;2023-07-30T09:37:44;24.70;9.60
26164;DHT22;13914;48.178;11.716;2023-07-30T09:40:13;24.80;9.60
26164;DHT22;13914;48.178;11.716;2023-07-30T09:42:43;24.90;9.80
26164;DHT22;13914;48.178;11.716;2023-07-30T09:45:24;25.00;9.40
26164;DHT22;13914;48.178;11.716;2023-07-30T09:47:51;25.10;9.40
26164;DHT22;13914;48.178;11.716;2023-07-30T09:50:17;25.20;9.00
26164;DHT22;13914;48.178;11.716;2023-07-30T09:52:43;25.30;9.10
26164;DHT22;13914;48.178;11.716;2023-07-30T09:55:09;25.40;8.00
26164;DHT22;13914;48.178;11.716;2023-07-30T09:57:36;25.50;7.60
26164;DHT22;13914;48.178;11.716;2023-07-30T10:00:02;25.60;8.20
26164;DHT22;13914;48.178;11.716;2023-07-30T10:02:29;25.60;8.20
26164;DHT22;13914;48.178;11.716;2023-07-30T10:04:59;25.70;7.10
26164;DHT22;13914;48.178;11.716;2023-07-30T10:07:25;25.80;6.70
26164;DHT22;13914;48.178;11.716;2023-07-30T10:09:51;25.90;7.80
26164;DHT22;13914;48.178;11.716;2023-07-30T10:12:21;26.00;7.70
26164;DHT22;13914;48.178;11.716;2023-07-30T10:14:48;26.00;7.40
26164;DHT22;13914;48.178;11.716;2023-07-30T10:17:14;26.10;7.20
26164;DHT22;13914;48.178;11.716;2023-07-30T10:19:42;26.10;5.40
26164;DHT22;13914;48.178;11.716;2023-07-30T10:24:41;26.20;6.70
26164;DHT22;13914;48.178;11.716;2023-07-30T10:27:07;26.30;6.80
26164;DHT22;13914;48.178;11.716;2023-07-30T10:29:36;26.30;7.30
26164;DHT22;13914;48.178;11.716;2023-07-30T10:32:06;26.30;7.50
26164;DHT22;13914;48.178;11.716;2023-07-30T10:34:45;26.40;7.00
26164;DHT22;13914;48.178;11.716;2023-07-30T10:37:18;26.40;7.20
26164;DHT22;13914;48.178;11.716;2023-07-30T10:39:47;26.40;7.20
26164;DHT22;13914;48.178;11.716;2023-07-30T10:42:13;26.50;7.10
26164;DHT22;13914;48.178;11.716;2023-07-30T10:44:40;26.50;6.80
26164;DHT22;13914;48.178;11.716;2023-07-30T10:47:09;26.50;7.00
26164;DHT22;13914;48.178;11.716;2023-07-30T10:49:41;26.50;6.50
26164;DHT22;13914;48.178;11.716;2023-07-30T10:52:09;26.60;7.00
26164;DHT22;13914;48.178;11.716;2023-07-30T10:54:35;26.70;7.00
26164;DHT22;13914;48.178;11.716;2023-07-30T10:57:02;26.70;5.80
26164;DHT22;13914;48.178;11.716;2023-07-30T10:59:34;26.70;6.20
26164;DHT22;13914;48.178;11.716;2023-07-30T11:02:03;26.80;6.80
26164;DHT22;13914;48.178;11.716;2023-07-30T11:04:33;26.80;7.00
26164;DHT22;13914;48.178;11.716;2023-07-30T11:06:59;26.80;7.20
26164;DHT22;13914;48.178;11.716;2023-07-30T11:09:25;26.80;7.10
26164;DHT22;13914;48.178;11.716;2023-07-30T11:11:53;26.80;6.20
26164;DHT22;13914;48.178;11.716;2023-07-30T11:14:20;26.90;6.70
26164;DHT22;13914;48.178;11.716;2023-07-30T11:16:48;26.90;6.00
26164;DHT22;13914;48.178;11.716;2023-07-30T11:19:15;26.90;6.70
26164;DHT22;13914;48.178;11.716;2023-07-30T11:21:44;27.00;6.90
26164;DHT22;13914;48.178;11.716;2023-07-30T11:24:11;27.00;6.20
26164;DHT22;13914;48.178;11.716;2023-07-30T11:26:36;27.00;5.00
26164;DHT22;13914;48.178;11.716;2023-07-30T11:29:13;27.00;5.90
26164;DHT22;13914;48.178;11.716;2023-07-30T11:31:40;27.10;5.60
26164;DHT22;13914;48.178;11.716;2023-07-30T11:34:05;27.10;6.30
26164;DHT22;13914;48.178;11.716;2023-07-30T11:36:31;27.10;5.80
26164;DHT22;13914;48.178;11.716;2023-07-30T11:38:57;27.10;5.80
26164;DHT22;13914;48.178;11.716;2023-07-30T11:41:23;27.20;6.00
26164;DHT22;13914;48.178;11.716;2023-07-30T11:43:49;27.20;6.50
26164;DHT22;13914;48.178;11.716;2023-07-30T11:46:17;27.20;4.40
26164;DHT22;13914;48.178;11.716;2023-07-30T11:48:45;27.20;4.20
26164;DHT22;13914;48.178;11.716;2023-07-30T11:51:18;27.20;4.60
26164;DHT22;13914;48.178;11.716;2023-07-30T11:56:16;27.20;3.60
26164;DHT22;13914;48.178;11.716;2023-07-30T11:58:41;27.10;3.30
26164;DHT22;13914;48.178;11.716;2023-07-30T12:01:07;27.10;3.80
26164;DHT22;13914;48.178;11.716;2023-07-30T12:03:33;27.00;4.10
26164;DHT22;13914;48.178;11.716;2023-07-30T12:05:59;26.90;3.90
26164;DHT22;13914;48.178;11.716;2023-07-30T12:08:30;26.90;4.00
26164;DHT22;13914;48.178;11.716;2023-07-30T12:10:56;26.90;3.80
26164;DHT22;13914;48.178;11.716;2023-07-30T12:13:27;26.80;3.70
26164;DHT22;13914;48.178;11.716;2023-07-30T12:15:53;26.70;3.10
26164;DHT22;13914;48.178;11.716;2023-07-30T12:18:20;26.70;3.00
26164;DHT22;13914;48.178;11.716;2023-07-30T12:20:47;26.70;3.80
26164;DHT22;13914;48.178;11.716;2023-07-30T12:23:13;26.60;3.00
26164;DHT22;13914;48.178;11.716;2023-07-30T12:25:39;26.60;2.90
26164;DHT22;13914;48.178;11.716;2023-07-30T12:28:05;26.50;2.70
26164;DHT22;13914;48.178;11.716;2023-07-30T12:30:30;26.50;2.50
26164;DHT22;13914;48.178;11.716;2023-07-30T12:32:56;26.40;2.20
26164;DHT22;13914;48.178;11.716;2023-07-30T12:35:23;26.40;2.20
26164;DHT22;13914;48.178;11.716;2023-07-30T12:37:48;26.30;2.40
26164;DHT22;13914;48.178;11.716;2023-07-30T12:40:14;26.30;2.60
26164;DHT22;13914;48.178;11.716;2023-07-30T12:42:40;26.30;3.10
26164;DHT22;13914;48.178;11.716;2023-07-30T12:45:06;26.20;2.70
26164;DHT22;13914;48.178;11.716;2023-07-30T12:47:32;26.20;3.10
26164;DHT22;13914;48.178;11.716;2023-07-30T12:50:00;26.20;3.30
26164;DHT22;13914;48.178;11.716;2023-07-30T12:52:27;26.10;3.50
26164;DHT22;13914;48.178;11.716;2023-07-30T12:54:52;26.10;3.50
26164;DHT22;13914;48.178;11.716;2023-07-30T12:57:19;26.10;3.80
26164;DHT22;13914;48.178;11.716;2023-07-30T12:59:44;26.10;3.90
26164;DHT22;13914;48.178;11.716;2023-07-30T13:02:10;26.10;4.30
26164;DHT22;13914;48.178;11.716;2023-07-30T13:04:36;26.10;4.30
26164;DHT22;13914;48.178;11.716;2023-07-30T13:07:02;26.10;4.50
26164;DHT22;13914;48.178;11.716;2023-07-30T13:09:28;26.10;4.60
26164;DHT22;13914;48.178;11.716;2023-07-30T13:11:53;26.10;4.90
26164;DHT22;13914;48.178;11.716;2023-07-30T13:14:19;26.10;4.40
26164;DHT22;13914;48.178;11.716;2023-07-30T13:16:45;26.10;4.70
26164;DHT22;13914;48.178;11.716;2023-07-30T13:19:11;26.10;4.80
26164;DHT22;13914;48.178;11.716;2023-07-30T13:21:37;26.10;4.60
26164;DHT22;13914;48.178;11.716;2023-07-30T13:24:02;26.10;4.80
26164;DHT22;13914;48.178;11.716;2023-07-30T13:26:28;26.10;4.50
26164;DHT22;13914;48.178;11.716;2023-07-30T13:28:54;26.00;4.30
26164;DHT22;13914;48.178;11.716;2023-07-30T13:31:19;26.00;4.20
26164;DHT22;13914;48.178;11.716;2023-07-30T13:33:45;26.00;4.30
26164;DHT22;13914;48.178;11.716;2023-07-30T13:36:12;26.00;4.30
26164;DHT22;13914;48.178;11.716;2023-07-30T13:38:38;25.90;4.60
26164;DHT22;13914;48.178;11.716;2023-07-30T13:41:04;25.90;4.80
26164;DHT22;13914;48.178;11.716;2023-07-30T13:43:31;25.90;4.50
26164;DHT22;13914;48.178;11.716;2023-07-30T13:45:57;25.90;4.20
26164;DHT22;13914;48.178;11.716;2023-07-30T13:48:23;25.80;4.30
26164;DHT22;13914;48.178;11.716;2023-07-30T13:50:50;25.80;4.40
26164;DHT22;13914;48.178;11.716;2023-07-30T13:53:15;25.70;4.20
26164;DHT22;13914;48.178;11.716;2023-07-30T13:55:41;25.70;4.20
26164;DHT22;13914;48.178;11.716;2023-07-30T13:58:07;25.60;4.50
26164;DHT22;13914;48.178;11.716;2023-07-30T14:00:33;25.50;4.60
26164;DHT22;13914;48.178;11.716;2023-07-30T14:02:59;25.50;4.90
26164;DHT22;13914;48.178;11.716;2023-07-30T14:05:25;25.40;5.10
26164;DHT22;13914;48.178;11.716;2023-07-30T14:07:52;25.40;5.70
26164;DHT22;13914;48.178;11.716;2023-07-30T14:10:19;25.40;5.80
26164;DHT22;13914;48.178;11.716;2023-07-30T14:12:45;25.30;5.90
26164;DHT22;13914;48.178;11.716;2023-07-30T14:15:11;25.30;6.50
26164;DHT22;13914;48.178;11.716;2023-07-30T14:17:36;25.20;6.40
26164;DHT22;13914;48.178;11.716;2023-07-30T14:20:02;25.20;6.40
26164;DHT22;13914;48.178;11.716;2023-07-30T14:22:28;25.20;6.50
26164;DHT22;13914;48.178;11.716;2023-07-30T14:24:53;25.20;6.60
26164;DHT22;13914;48.178;11.716;2023-07-30T14:27:19;25.10;6.20
26164;DHT22;13914;48.178;11.716;2023-07-30T14:29:45;25.10;6.20
26164;DHT22;13914;48.178;11.716;2023-07-30T14:32:10;25.10;6.10
26164;DHT22;13914;48.178;11.716;2023-07-30T14:34:36;25.00;6.10
26164;DHT22;13914;48.178;11.716;2023-07-30T14:37:02;25.00;6.00
26164;DHT22;13914;48.178;11.716;2023-07-30T14:39:27;25.00;6.00
26164;DHT22;13914;48.178;11.716;2023-07-30T14:41:53;25.00;6.10
26164;DHT22;13914;48.178;11.716;2023-07-30T14:44:19;24.90;5.90
26164;DHT22;13914;48.178;11.716;2023-07-30T14:46:45;24.90;6.00
26164;DHT22;13914;48.178;11.716;2023-07-30T14:49:10;24.90;5.90
26164;DHT22;13914;48.178;11.716;2023-07-30T14:51:36;24.80;5.80
26164;DHT22;13914;48.178;11.716;2023-07-30T14:54:01;24.80;5.50
26164;DHT22;13914;48.178;11.716;2023-07-30T14:56:28;24.70;5.60
26164;DHT22;13914;48.178;11.716;2023-07-30T14:58:54;24.70;5.40
26164;DHT22;13914;48.178;11.716;2023-07-30T15:01:21;24.70;5.50
26164;DHT22;13914;48.178;11.716;2023-07-30T15:03:47;24.70;5.60
26164;DHT22;13914;48.178;11.716;2023-07-30T15:06:13;24.60;5.00
26164;DHT22;13914;48.178;11.716;2023-07-30T15:08:39;24.50;5.10
26164;DHT22;13914;48.178;11.716;2023-07-30T15:11:04;24.60;5.60
26164;DHT22;13914;48.178;11.716;2023-07-30T15:13:30;24.60;5.40
26164;DHT22;13914;48.178;11.716;2023-07-30T15:15:56;24.50;5.20
26164;DHT22;13914;48.178;11.716;2023-07-30T15:18:21;24.50;5.50
26164;DHT22;13914;48.178;11.716;2023-07-30T15:20:47;24.50;5.70